Time,TemperatureF,DewpointF,PressureIn,WindDirection,WindDirectionDegrees,WindSpeedMPH,WindSpeedGustMPH,Humidity,HourlyPrecipIn,Conditions,Clouds,dailyrainin,SolarRadiationWatts/m^2,SoftwareType,DateUTC
2013-09-16 00:04:00,63.0,58.0,-100.00,ENE,76,0.0,3.0,83,0.00,,,0.00,0.000000,,2013-09-16 05:04:00,
2013-09-16 00:44:00,63.0,57.0,-100.00,SE,139,0.0,2.0,82,0.00,,,0.00,0.000000,,2013-09-16 05:44:00,
2013-09-16 00:53:00,63.0,57.0,-100.00,SE,139,0.0,2.0,82,0.00,,,0.00,0.000000,,2013-09-16 05:53:00,
2013-09-16 01:03:00,63.0,57.0,-100.00,SE,139,0.0,2.0,82,0.00,,,0.00,0.000000,,2013-09-16 06:03:00,
2013-09-16 01:43:00,62.0,59.0,-100.00,SW,227,0.0,4.0,89,0.00,,,0.00,0.000000,,2013-09-16 06:43:00,
2013-09-16 01:52:00,62.0,59.0,-100.00,SW,227,0.0,4.0,89,0.00,,,0.00,0.000000,,2013-09-16 06:52:00,
2013-09-16 02:02:00,62.0,59.0,-100.00,SW,227,0.0,4.0,89,0.00,,,0.00,0.000000,,2013-09-16 07:02:00,
2013-09-16 02:43:00,62.0,59.0,-100.00,NNW,339,2.0,6.0,91,0.00,,,0.00,0.000000,,2013-09-16 07:43:00,
2013-09-16 02:52:00,62.0,59.0,-100.00,NNW,339,2.0,6.0,91,0.00,,,0.00,0.000000,,2013-09-16 07:52:00,
2013-09-16 03:02:00,62.0,59.0,-100.00,NNW,339,2.0,6.0,91,0.00,,,0.00,0.000000,,2013-09-16 08:02:00,
2013-09-16 03:42:00,63.0,59.0,-100.00,SE,137,1.0,3.0,88,0.00,,,0.00,0.000000,,2013-09-16 08:42:00,
2013-09-16 03:52:00,63.0,59.0,-100.00,SE,137,1.0,3.0,88,0.00,,,0.00,0.000000,,2013-09-16 08:52:00,
2013-09-16 04:02:00,63.0,59.0,-100.00,SE,137,1.0,3.0,88,0.00,,,0.00,0.000000,,2013-09-16 09:02:00,
2013-09-16 04:43:00,64.0,61.0,-100.00,NW,315,1.0,3.0,90,0.00,,,0.00,0.000000,,2013-09-16 09:43:00,
2013-09-16 04:53:00,64.0,61.0,-100.00,NW,315,1.0,3.0,90,0.00,,,0.00,0.000000,,2013-09-16 09:53:00,
2013-09-16 05:03:00,64.0,61.0,-100.00,NW,315,1.0,3.0,90,0.00,,,0.00,0.000000,,2013-09-16 10:03:00,
2013-09-16 05:42:00,62.0,61.0,-100.00,West,281,2.0,6.0,97,0.02,,,0.02,0.000000,,2013-09-16 10:42:00,
2013-09-16 05:53:00,62.0,61.0,-100.00,West,281,2.0,6.0,97,0.02,,,0.02,0.000000,,2013-09-16 10:53:00,
2013-09-16 06:02:00,62.0,61.0,-100.00,West,281,2.0,6.0,97,0.02,,,0.02,0.000000,,2013-09-16 11:02:00,
2013-09-16 06:42:00,62.0,61.0,-100.00,East,80,0.0,3.0,98,0.00,,,0.02,0.000000,,2013-09-16 11:42:00,
2013-09-16 06:52:00,62.0,61.0,-100.00,East,80,0.0,3.0,98,0.00,,,0.02,0.000000,,2013-09-16 11:52:00,
2013-09-16 07:01:00,62.0,61.0,-100.00,East,80,0.0,3.0,98,0.00,,,0.02,0.000000,,2013-09-16 12:01:00,
2013-09-16 07:42:00,62.0,61.0,-100.00,NNW,345,1.0,3.0,98,0.00,,,0.02,5.000000,,2013-09-16 12:42:00,
2013-09-16 07:52:00,62.0,61.0,-100.00,NNW,345,1.0,3.0,98,0.00,,,0.02,5.000000,,2013-09-16 12:52:00,
2013-09-16 08:02:00,62.0,61.0,-100.00,NNW,345,1.0,3.0,98,0.00,,,0.02,5.000000,,2013-09-16 13:02:00,
2013-09-16 08:42:00,64.0,62.0,-100.00,North,352,3.0,5.0,94,0.00,,,0.02,32.000000,,2013-09-16 13:42:00,
2013-09-16 08:52:00,64.0,62.0,-100.00,North,352,3.0,5.0,94,0.00,,,0.02,32.000000,,2013-09-16 13:52:00,
2013-09-16 09:02:00,64.0,62.0,-100.00,North,352,3.0,5.0,94,0.00,,,0.02,32.000000,,2013-09-16 14:02:00,
2013-09-16 09:42:00,64.0,63.0,-100.00,NNE,30,2.0,9.0,97,0.03,,,0.05,49.000000,,2013-09-16 14:42:00,
2013-09-16 09:52:00,64.0,63.0,-100.00,NNE,30,2.0,9.0,97,0.03,,,0.05,49.000000,,2013-09-16 14:52:00,
2013-09-16 10:02:00,64.0,63.0,-100.00,NNE,30,2.0,9.0,97,0.03,,,0.05,49.000000,,2013-09-16 15:02:00,
2013-09-16 10:43:00,66.0,64.0,-100.00,North,2,5.0,8.0,92,0.00,,,0.05,161.000000,,2013-09-16 15:43:00,
2013-09-16 10:53:00,66.0,64.0,-100.00,North,2,5.0,8.0,92,0.00,,,0.05,161.000000,,2013-09-16 15:53:00,
2013-09-16 11:03:00,66.0,64.0,-100.00,North,2,5.0,8.0,92,0.00,,,0.05,161.000000,,2013-09-16 16:03:00,
2013-09-16 11:43:00,67.0,63.0,-100.00,NNE,24,3.0,7.0,88,0.00,,,0.05,167.000000,,2013-09-16 16:43:00,
2013-09-16 11:52:00,67.0,63.0,-100.00,NNE,24,3.0,7.0,88,0.00,,,0.05,167.000000,,2013-09-16 16:52:00,
2013-09-16 12:03:00,67.0,63.0,-100.00,NNE,24,3.0,7.0,88,0.00,,,0.05,167.000000,,2013-09-16 17:03:00,
2013-09-16 12:43:00,69.0,64.0,-100.00,North,6,3.0,7.0,83,0.00,,,0.05,233.000000,,2013-09-16 17:43:00,
2013-09-16 12:53:00,69.0,64.0,-100.00,North,6,3.0,7.0,83,0.00,,,0.05,233.000000,,2013-09-16 17:53:00,
2013-09-16 13:02:00,69.0,64.0,-100.00,North,6,3.0,7.0,83,0.00,,,0.05,233.000000,,2013-09-16 18:02:00,
2013-09-16 13:42:00,75.0,63.0,-100.00,NNE,15,4.0,10.0,67,0.00,,,0.05,495.000000,,2013-09-16 18:42:00,
2013-09-16 13:52:00,75.0,63.0,-100.00,NNE,15,4.0,10.0,67,0.00,,,0.05,495.000000,,2013-09-16 18:52:00,
2013-09-16 14:01:00,75.0,63.0,-100.00,NNE,15,4.0,10.0,67,0.00,,,0.05,495.000000,,2013-09-16 19:01:00,
2013-09-16 14:42:00,75.0,62.0,-100.00,NNE,25,4.0,8.0,64,0.00,,,0.05,367.000000,,2013-09-16 19:42:00,
2013-09-16 14:53:00,75.0,62.0,-100.00,NNE,25,4.0,8.0,64,0.00,,,0.05,367.000000,,2013-09-16 19:53:00,
2013-09-16 15:03:00,75.0,62.0,-100.00,NNE,25,4.0,8.0,64,0.00,,,0.05,367.000000,,2013-09-16 20:03:00,
2013-09-16 15:43:00,75.0,63.0,-100.00,North,3,5.0,10.0,66,0.00,,,0.05,275.000000,,2013-09-16 20:43:00,
2013-09-16 15:52:00,75.0,63.0,-100.00,North,3,5.0,10.0,66,0.00,,,0.05,275.000000,,2013-09-16 20:52:00,
2013-09-16 16:03:00,75.0,63.0,-100.00,North,3,5.0,10.0,66,0.00,,,0.05,275.000000,,2013-09-16 21:03:00,
2013-09-16 16:44:00,77.0,63.0,-100.00,North,11,4.0,10.0,61,0.00,,,0.05,511.000000,,2013-09-16 21:44:00,
2013-09-16 16:56:00,77.0,63.0,-100.00,North,11,4.0,10.0,61,0.00,,,0.05,511.000000,,2013-09-16 21:56:00,
2013-09-16 17:04:00,77.0,63.0,-100.00,North,11,4.0,10.0,61,0.00,,,0.05,511.000000,,2013-09-16 22:04:00,
2013-09-16 17:43:00,75.0,61.0,-100.00,NNE,33,3.0,14.0,61,0.00,,,0.05,331.000000,,2013-09-16 22:43:00,
2013-09-16 17:54:00,75.0,61.0,-100.00,NNE,33,3.0,14.0,61,0.00,,,0.05,331.000000,,2013-09-16 22:54:00,
2013-09-16 18:02:00,75.0,61.0,-100.00,NNE,33,3.0,14.0,61,0.00,,,0.05,331.000000,,2013-09-16 23:02:00,
2013-09-16 18:43:00,72.0,60.0,-100.00,NNE,20,2.0,11.0,67,0.00,,,0.05,108.000000,,2013-09-16 23:43:00,
2013-09-16 18:53:00,72.0,60.0,-100.00,NNE,20,2.0,11.0,67,0.00,,,0.05,108.000000,,2013-09-16 23:53:00,
2013-09-16 19:02:00,72.0,60.0,-100.00,NNE,20,2.0,11.0,67,0.00,,,0.05,108.000000,,2013-09-17 00:02:00,
2013-09-16 19:42:00,68.0,61.0,-100.00,North,11,2.0,6.0,79,0.00,,,0.05,23.000000,,2013-09-17 00:42:00,
2013-09-16 19:52:00,68.0,61.0,-100.00,North,11,2.0,6.0,79,0.00,,,0.05,23.000000,,2013-09-17 00:52:00,
2013-09-16 20:02:00,68.0,61.0,-100.00,North,11,2.0,6.0,79,0.00,,,0.05,23.000000,,2013-09-17 01:02:00,
2013-09-16 20:42:00,65.0,60.0,-100.00,North,6,1.0,5.0,84,0.00,,,0.05,0.000000,,2013-09-17 01:42:00,
2013-09-16 20:52:00,65.0,60.0,-100.00,North,6,1.0,5.0,84,0.00,,,0.05,0.000000,,2013-09-17 01:52:00,
2013-09-16 21:03:00,65.0,60.0,-100.00,North,6,1.0,5.0,84,0.00,,,0.05,0.000000,,2013-09-17 02:03:00,
2013-09-16 21:42:00,64.0,60.0,-100.00,North,356,1.0,5.0,87,0.00,,,0.05,0.000000,,2013-09-17 02:42:00,
2013-09-16 21:52:00,64.0,60.0,-100.00,North,356,1.0,5.0,87,0.00,,,0.05,0.000000,,2013-09-17 02:52:00,
2013-09-16 22:02:00,64.0,60.0,-100.00,North,356,1.0,5.0,87,0.00,,,0.05,0.000000,,2013-09-17 03:02:00,
2013-09-16 22:45:00,63.0,60.0,-100.00,NE,49,1.0,5.0,90,0.00,,,0.05,0.000000,,2013-09-17 03:45:00,
2013-09-16 22:54:00,63.0,60.0,-100.00,NE,49,1.0,5.0,90,0.00,,,0.05,0.000000,,2013-09-17 03:54:00,
2013-09-16 23:04:00,63.0,60.0,-100.00,NE,49,1.0,5.0,90,0.00,,,0.05,0.000000,,2013-09-17 04:04:00,
2013-09-16 23:44:00,63.0,60.0,-100.00,East,79,1.0,5.0,89,0.00,,,0.05,0.000000,,2013-09-17 04:44:00,
2013-09-16 23:54:00,63.0,60.0,-100.00,East,79,1.0,5.0,89,0.00,,,0.05,0.000000,,2013-09-17 04:54:00,